createdAt,value
2019-04-11T00:03:05.155Z,4.46
2019-04-11T00:05:35.074Z,4.49
2019-04-11T00:08:14.593Z,4.47
2019-04-11T00:10:45.020Z,4.46
2019-04-11T00:13:36.250Z,4.46
2019-04-11T00:16:25.478Z,4.42
2019-04-11T00:19:01.046Z,4.41
2019-04-11T00:21:30.924Z,4.39
2019-04-11T00:24:21.265Z,4.37
2019-04-11T00:26:50.781Z,4.36
2019-04-11T00:29:20.579Z,4.35
2019-04-11T00:31:50.127Z,4.31
2019-04-11T00:34:20.542Z,4.27
2019-04-11T00:37:00.990Z,4.24
2019-04-11T00:39:37.574Z,4.20
2019-04-11T00:42:17.374Z,4.18
2019-04-11T00:44:57.335Z,4.17
2019-04-11T00:47:26.944Z,4.15
2019-04-11T00:52:57.976Z,4.12
2019-04-11T00:55:48.164Z,4.10
2019-04-11T00:58:17.465Z,4.08
2019-04-11T01:00:47.245Z,4.04
2019-04-11T01:03:36.061Z,4.01
2019-04-11T01:06:46.525Z,3.96
2019-04-11T01:09:36.720Z,3.93
2019-04-11T01:12:12.484Z,3.87
2019-04-11T01:14:42.706Z,3.84
2019-04-11T01:17:32.310Z,3.81
2019-04-11T01:23:22.792Z,3.76
2019-04-11T01:25:59.202Z,3.72
2019-04-11T01:28:28.916Z,3.70
2019-04-11T01:34:14.186Z,3.62
2019-04-11T01:36:45.374Z,3.60
2019-04-11T01:39:35.016Z,3.56
2019-04-11T01:45:11.523Z,3.44
2019-04-11T01:50:57.073Z,3.41
2019-04-11T01:53:37.362Z,3.37
2019-04-11T01:56:14.826Z,3.36
2019-04-11T02:04:54.369Z,3.34
2019-04-11T02:07:31.026Z,3.32
2019-04-11T02:10:06.931Z,3.33
2019-04-11T02:12:37.411Z,3.32
2019-04-11T02:18:23.563Z,3.33
2019-04-11T02:20:54.233Z,3.32
2019-04-11T02:28:53.396Z,3.31
2019-04-11T02:31:23.208Z,3.31
2019-04-11T02:34:00.031Z,3.31
2019-04-11T02:36:38.238Z,3.29
2019-04-11T02:39:17.650Z,3.27
2019-04-11T02:41:54.935Z,3.23
2019-04-11T02:44:46.128Z,3.23
2019-04-11T02:50:43.353Z,3.20
2019-04-11T02:53:14.819Z,3.17
2019-04-11T02:56:31.259Z,3.16
2019-04-11T02:59:06.739Z,3.17
2019-04-11T03:01:37.021Z,3.17
2019-04-11T03:04:14.829Z,3.18
2019-04-11T03:06:55.336Z,3.21
2019-04-11T03:09:31.357Z,3.23
2019-04-11T03:12:12.007Z,3.24
2019-04-11T03:15:10.425Z,3.24
2019-04-11T03:17:34.243Z,3.25
2019-04-11T03:23:09.878Z,3.24
2019-04-11T03:29:08.771Z,3.30
2019-04-11T03:32:31.645Z,3.31
2019-04-11T03:35:09.260Z,3.31
2019-04-11T03:39:59.530Z,3.36
2019-04-11T03:42:50.328Z,3.37
2019-04-11T03:45:33.212Z,3.38
2019-04-11T03:48:04.359Z,3.39
2019-04-11T03:51:03.904Z,3.40
2019-04-11T03:53:40.922Z,3.38
2019-04-11T03:56:18.266Z,3.35
2019-04-11T04:02:17.115Z,3.30
2019-04-11T04:04:54.108Z,3.26
2019-04-11T04:07:31.820Z,3.26
2019-04-11T04:10:13.116Z,3.25
2019-04-11T04:12:47.507Z,3.24
2019-04-11T04:18:38.171Z,3.15
2019-04-11T04:21:19.278Z,3.15
2019-04-11T04:27:38.776Z,3.15
2019-04-11T04:33:16.867Z,3.13
2019-04-11T04:36:34.929Z,3.12
2019-04-11T04:42:46.079Z,3.10
2019-04-11T04:48:12.519Z,3.09
2019-04-11T04:50:42.204Z,3.06
2019-04-11T04:53:23.663Z,3.03
2019-04-11T04:58:58.421Z,3.01
2019-04-11T05:01:55.448Z,2.99
2019-04-11T05:07:23.584Z,2.95
2019-04-11T05:10:32.741Z,2.95
2019-04-11T05:13:10.089Z,2.93
2019-04-11T05:16:03.820Z,2.92
2019-04-11T05:18:26.460Z,2.92
2019-04-11T05:20:56.881Z,2.92
2019-04-11T05:24:26.453Z,2.92
2019-04-11T05:27:22.947Z,2.95
2019-04-11T05:30:18.760Z,2.95
2019-04-11T05:32:55.737Z,2.92
2019-04-11T05:35:36.232Z,2.90
2019-04-11T05:38:15.250Z,2.89
2019-04-11T05:41:04.153Z,2.92
2019-04-11T05:43:55.716Z,2.92
2019-04-11T05:46:57.200Z,2.92
2019-04-11T05:50:10.048Z,2.92
2019-04-11T05:52:50.390Z,2.96
2019-04-11T05:55:43.344Z,2.96
2019-04-11T05:58:17.573Z,2.98
2019-04-11T06:01:06.461Z,3.00
2019-04-11T06:09:35.072Z,3.26
2019-04-11T06:12:41.416Z,3.33
2019-04-11T06:18:50.149Z,3.45
2019-04-11T06:24:20.322Z,3.70
2019-04-11T06:27:11.351Z,3.88
2019-04-11T06:30:40.128Z,4.00
2019-04-11T06:33:29.372Z,4.06
2019-04-11T06:36:18.197Z,4.09
2019-04-11T06:42:05.589Z,4.23
2019-04-11T07:02:13.716Z,5.51
2019-04-11T07:16:36.178Z,6.45
2019-04-11T07:19:26.515Z,6.45
2019-04-11T07:21:56.113Z,6.46
2019-04-11T07:24:45.355Z,6.51
2019-04-11T07:27:15.969Z,6.47
2019-04-11T07:36:29.677Z,6.46
2019-04-11T07:39:18.257Z,6.58
2019-04-11T07:42:07.596Z,6.63
2019-04-11T07:45:04.182Z,6.70
2019-04-11T07:48:19.326Z,6.92
2019-04-11T07:57:22.533Z,7.86
2019-04-11T08:03:51.343Z,7.76
2019-04-11T08:06:41.127Z,7.83
2019-04-11T08:15:33.526Z,8.46
2019-04-11T08:18:35.018Z,9.17
2019-04-11T08:21:23.605Z,9.17
2019-04-11T08:24:12.175Z,9.29
2019-04-11T08:27:20.055Z,9.29
2019-04-11T08:32:50.226Z,9.58
2019-04-11T08:35:40.227Z,9.73
2019-04-11T08:38:56.443Z,9.54
2019-04-11T08:41:51.669Z,9.34
2019-04-11T08:44:21.618Z,9.45
2019-04-11T08:50:30.833Z,9.97
2019-04-11T08:53:20.519Z,10.27
2019-04-11T08:56:23.183Z,10.32
2019-04-11T08:59:31.901Z,10.32
2019-04-11T09:02:02.526Z,10.52
2019-04-11T09:05:22.865Z,10.57
2019-04-11T09:08:11.483Z,10.08
2019-04-11T09:11:20.466Z,9.83
2019-04-11T09:14:09.311Z,10.02
2019-04-11T09:16:58.293Z,10.47
2019-04-11T09:19:47.291Z,10.83
2019-04-11T09:22:35.759Z,11.04
2019-04-11T09:33:47.330Z,11.03
2019-04-11T09:36:38.725Z,11.19
2019-04-11T09:39:35.002Z,11.54
2019-04-11T09:42:30.353Z,12.02
2019-04-11T09:45:19.632Z,12.46
2019-04-11T09:48:14.762Z,12.49
2019-04-11T09:51:05.897Z,12.39
2019-04-11T09:59:51.758Z,11.94
2019-04-11T10:03:00.835Z,12.13
2019-04-11T10:06:09.400Z,12.59
2019-04-11T10:11:40.133Z,13.60
2019-04-11T10:17:10.587Z,13.25
2019-04-11T10:19:46.496Z,13.31
2019-04-11T10:22:46.032Z,13.53
2019-04-11T10:28:30.630Z,13.81
2019-04-11T10:34:21.647Z,13.30
2019-04-11T10:48:07.612Z,12.52
2019-04-11T10:50:56.235Z,12.28
2019-04-11T10:53:27.497Z,12.11
2019-04-11T10:56:16.241Z,12.04
2019-04-11T11:02:00.306Z,11.87
2019-04-11T11:10:46.024Z,11.10
2019-04-11T11:13:36.021Z,11.07
2019-04-11T11:16:45.513Z,11.04
2019-04-11T11:19:56.285Z,11.03
2019-04-11T11:22:39.065Z,11.07
2019-04-11T11:25:33.031Z,11.07
2019-04-11T11:28:03.574Z,11.09
2019-04-11T11:31:12.070Z,11.03
2019-04-11T11:36:41.876Z,10.85
2019-04-11T11:39:33.209Z,10.79
2019-04-11T11:42:28.293Z,10.79
2019-04-11T11:45:37.350Z,10.80
2019-04-11T11:48:26.359Z,10.74
2019-04-11T11:54:11.532Z,10.85
2019-04-11T11:59:40.804Z,10.81
2019-04-11T12:05:49.038Z,10.47
2019-04-11T12:08:48.280Z,10.26
2019-04-11T12:14:39.959Z,9.95
2019-04-11T12:17:37.235Z,9.91
2019-04-11T12:22:53.669Z,10.32
2019-04-11T12:26:01.846Z,10.40
2019-04-11T12:28:52.267Z,10.33
2019-04-11T12:31:28.708Z,10.19
2019-04-11T12:34:18.634Z,10.02
2019-04-11T12:37:27.533Z,10.05
2019-04-11T12:40:15.983Z,10.16
2019-04-11T12:42:45.636Z,10.10
2019-04-11T12:45:55.059Z,10.10
2019-04-11T12:48:39.140Z,10.43
2019-04-11T12:51:48.715Z,10.43
2019-04-11T12:57:17.064Z,10.84
2019-04-11T13:02:48.007Z,10.75
2019-04-11T13:05:36.802Z,10.69
2019-04-11T13:08:25.280Z,10.55
2019-04-11T13:10:54.827Z,10.55
2019-04-11T13:13:43.335Z,10.58
2019-04-11T13:19:32.276Z,10.72
2019-04-11T13:25:02.828Z,10.98
2019-04-11T13:36:14.019Z,11.06
2019-04-11T13:42:23.750Z,11.14
2019-04-11T13:44:53.114Z,11.04
2019-04-11T13:47:41.896Z,10.97
2019-04-11T13:53:30.371Z,11.13
2019-04-11T13:59:07.251Z,11.00
2019-04-11T14:02:15.247Z,11.03
2019-04-11T14:05:25.098Z,11.06
2019-04-11T14:13:51.384Z,11.07
2019-04-11T14:16:41.701Z,10.94
2019-04-11T14:19:36.295Z,10.85
2019-04-11T14:33:55.564Z,11.81
2019-04-11T14:36:49.637Z,11.87
2019-04-11T14:42:17.215Z,11.66
2019-04-11T14:48:01.181Z,11.48
2019-04-11T14:53:46.651Z,11.33
2019-04-11T14:59:45.327Z,10.90
2019-04-11T15:02:33.952Z,10.86
2019-04-11T15:11:04.284Z,10.60
2019-04-11T15:17:07.629Z,10.55
2019-04-11T15:19:37.002Z,10.53
2019-04-11T15:22:25.476Z,10.54
2019-04-11T15:25:15.593Z,10.54
2019-04-11T15:28:04.202Z,10.65
2019-04-11T15:30:52.707Z,10.74
2019-04-11T15:37:12.972Z,10.97
2019-04-11T15:40:01.467Z,10.96
2019-04-11T15:42:50.200Z,10.92
2019-04-11T15:45:38.998Z,10.92
2019-04-11T15:48:27.475Z,10.87
2019-04-11T15:51:16.241Z,10.85
2019-04-11T15:57:00.236Z,10.75
2019-04-11T15:59:49.040Z,10.53
2019-04-11T16:02:50.522Z,10.49
2019-04-11T16:05:39.332Z,10.49
2019-04-11T16:08:27.818Z,10.74
2019-04-11T16:11:16.324Z,10.97
2019-04-11T16:14:05.109Z,11.08
2019-04-11T16:19:32.549Z,10.93
2019-04-11T16:27:42.878Z,10.98
2019-04-11T16:33:52.301Z,10.77
2019-04-11T16:39:36.505Z,10.90
2019-04-11T16:45:06.148Z,10.73
2019-04-11T16:47:56.948Z,10.48
2019-04-11T16:50:26.529Z,10.28
2019-04-11T16:52:56.197Z,10.28
2019-04-11T16:55:27.687Z,10.33
2019-04-11T16:57:57.124Z,10.33
2019-04-11T17:00:26.874Z,10.35
2019-04-11T17:02:56.274Z,10.34
2019-04-11T17:05:26.798Z,10.34
2019-04-11T17:13:57.049Z,10.06
2019-04-11T17:19:37.183Z,9.87
2019-04-11T17:22:08.279Z,9.60
2019-04-11T17:24:58.251Z,9.40
2019-04-11T17:27:27.910Z,9.23
2019-04-11T17:30:16.694Z,9.11
2019-04-11T17:33:05.574Z,8.96
2019-04-11T17:35:47.258Z,8.87
2019-04-11T17:38:16.619Z,8.87
2019-04-11T17:41:05.887Z,8.78
2019-04-11T17:43:35.249Z,8.78
2019-04-11T17:46:04.624Z,8.73
2019-04-11T17:48:53.392Z,8.69
2019-04-11T17:51:22.877Z,8.69
2019-04-11T17:54:04.708Z,8.59
2019-04-11T17:56:46.480Z,8.55
2019-04-11T17:59:16.130Z,8.55
2019-04-11T18:01:45.532Z,8.53
2019-04-11T18:04:15.538Z,8.48
2019-04-11T18:06:47.186Z,8.46
2019-04-11T18:12:03.307Z,8.38
2019-04-11T18:14:32.661Z,8.38
2019-04-11T18:17:16.589Z,8.21
2019-04-11T18:19:46.314Z,8.17
2019-04-11T18:22:15.751Z,8.17
2019-04-11T18:24:45.442Z,8.20
2019-04-11T18:27:14.809Z,8.20
2019-04-11T18:29:56.731Z,8.11
2019-04-11T18:32:26.398Z,8.11
2019-04-11T18:34:55.754Z,8.07
2019-04-11T18:37:44.318Z,8.04
2019-04-11T18:43:59.723Z,7.94
2019-04-11T18:46:29.679Z,7.94
2019-04-11T18:48:59.063Z,7.98
2019-04-11T18:51:30.441Z,7.98
2019-04-11T18:54:08.613Z,7.95
2019-04-11T18:56:38.432Z,7.88
2019-04-11T18:59:23.078Z,7.82
2019-04-11T19:05:02.828Z,7.77
2019-04-11T19:07:56.949Z,7.71
2019-04-11T19:10:28.196Z,7.71
2019-04-11T19:12:57.557Z,7.69
2019-04-11T19:15:29.074Z,7.71
2019-04-11T19:18:06.375Z,7.68
2019-04-11T19:20:29.798Z,7.68
2019-04-11T19:22:59.764Z,7.69
2019-04-11T19:25:31.541Z,7.78
2019-04-11T19:28:00.531Z,7.82
2019-04-11T19:30:29.887Z,7.82
2019-04-11T19:32:59.501Z,7.79
2019-04-11T19:35:28.861Z,7.79
2019-04-11T19:37:59.117Z,7.79
2019-04-11T19:40:30.429Z,7.79
2019-04-11T19:43:00.018Z,7.82
2019-04-11T19:45:29.682Z,7.85
2019-04-11T19:47:59.337Z,7.88
2019-04-11T19:50:29.653Z,7.86
2019-04-11T19:53:02.634Z,7.89
2019-04-11T19:55:34.566Z,7.89
2019-04-11T19:58:03.542Z,7.88
2019-04-11T20:00:33.654Z,7.86
2019-04-11T20:03:03.019Z,7.81
2019-04-11T20:05:32.499Z,7.77
2019-04-11T20:08:01.867Z,7.77
2019-04-11T20:10:31.850Z,7.73
2019-04-11T20:13:02.014Z,7.70
2019-04-11T20:15:37.001Z,7.70
2019-04-11T20:18:02.959Z,7.71
2019-04-11T20:20:36.877Z,7.73
2019-04-11T20:23:03.657Z,7.73
2019-04-11T20:25:33.997Z,7.70
2019-04-11T20:28:03.634Z,7.65
2019-04-11T20:30:32.997Z,7.65
2019-04-11T20:33:03.212Z,7.46
2019-04-11T20:35:34.470Z,7.46
2019-04-11T20:38:03.822Z,7.40
2019-04-11T20:40:33.555Z,7.41
2019-04-11T20:43:02.919Z,7.39
2019-04-11T20:45:34.227Z,7.36
2019-04-11T20:48:03.671Z,7.33
2019-04-11T20:50:33.029Z,7.33
2019-04-11T20:53:12.094Z,7.28
2019-04-11T20:55:33.707Z,7.23
2019-04-11T20:58:03.063Z,7.20
2019-04-11T21:00:33.022Z,7.13
2019-04-11T21:03:02.690Z,7.19
2019-04-11T21:05:32.835Z,7.19
2019-04-11T21:08:03.079Z,7.19
2019-04-11T21:10:34.048Z,7.16
2019-04-11T21:13:06.890Z,7.11
2019-04-11T21:15:34.998Z,7.15
2019-04-11T21:18:04.675Z,7.10
2019-04-11T21:20:34.052Z,7.10
2019-04-11T21:23:03.703Z,7.11
2019-04-11T21:25:33.062Z,7.11
2019-04-11T21:28:02.726Z,7.05
2019-04-11T21:30:32.102Z,7.01
2019-04-11T21:33:03.597Z,7.00
2019-04-11T21:35:33.484Z,6.97
2019-04-11T21:38:03.312Z,6.95
2019-04-11T21:40:35.587Z,6.95
2019-04-11T21:43:06.210Z,6.97
2019-04-11T21:45:35.963Z,6.95
2019-04-11T21:48:06.850Z,6.95
2019-04-11T21:50:40.264Z,6.91
2019-04-11T21:53:07.840Z,6.88
2019-04-11T21:55:37.456Z,6.88
2019-04-11T21:58:06.860Z,6.90
2019-04-11T22:00:39.811Z,6.88
2019-04-11T22:03:12.194Z,6.86
2019-04-11T22:05:46.145Z,6.86
2019-04-11T22:08:15.736Z,6.82
2019-04-11T22:10:45.143Z,6.82
2019-04-11T22:13:14.794Z,6.72
2019-04-11T22:15:44.677Z,6.72
2019-04-11T22:18:16.774Z,6.65
2019-04-11T22:20:45.873Z,6.67
2019-04-11T22:23:15.332Z,6.71
2019-04-11T22:25:45.217Z,6.75
2019-04-11T22:28:15.221Z,6.78
2019-04-11T22:30:45.395Z,6.78
2019-04-11T22:33:27.622Z,6.81
2019-04-11T22:35:59.330Z,6.84
2019-04-11T22:38:30.735Z,6.80
2019-04-11T22:41:01.769Z,6.78
2019-04-11T22:43:31.416Z,6.74
2019-04-11T22:46:01.316Z,6.71
2019-04-11T22:48:30.978Z,6.68
2019-04-11T22:51:01.885Z,6.68
2019-04-11T22:53:31.242Z,6.67
2019-04-11T22:56:01.264Z,6.63
2019-04-11T22:58:31.849Z,6.63
2019-04-11T23:01:01.313Z,6.63
2019-04-11T23:03:33.634Z,6.60
2019-04-11T23:06:03.220Z,6.56
2019-04-11T23:08:33.079Z,6.54
2019-04-11T23:11:02.746Z,6.54
2019-04-11T23:13:32.110Z,6.50
2019-04-11T23:16:01.489Z,6.51
2019-04-11T23:18:31.096Z,6.51
2019-04-11T23:21:00.477Z,6.50
2019-04-11T23:23:30.124Z,6.45
2019-04-11T23:25:59.497Z,6.40
2019-04-11T23:28:28.958Z,6.37
2019-04-11T23:30:58.321Z,6.38
2019-04-11T23:33:27.998Z,6.39
2019-04-11T23:35:57.363Z,6.38
2019-04-11T23:38:28.290Z,6.40
2019-04-11T23:40:57.950Z,6.38
2019-04-11T23:43:27.644Z,6.37
2019-04-11T23:45:57.292Z,6.34
2019-04-11T23:48:26.626Z,6.34
2019-04-11T23:50:56.042Z,6.30
2019-04-11T23:53:28.156Z,6.28
2019-04-11T23:55:59.952Z,6.25
2019-04-11T23:58:31.800Z,6.23
